Time;durP1;ratioP1;P1;durP2;ratioP2;P2;SDS_P1;SDS_P2;PMS_P1;PMS_P2;Temp;Humidity;BMP_temperature;BMP_pressure;BME280_temperature;BME280_humidity;BME280_pressure;Samples;Min_cycle;Max_cycle;Signal;HPM_P1;HPM_P2
2021/12/28 00:01:10;;;;;;;235.43;166.43;;;;;;;24.99;40.21;99372.19;5027275;28;20059;-44
2021/12/28 00:03:42;;;;;;;244.30;168.25;;;;;;;25.02;40.41;99391.38;5027438;28;20398;-43
2021/12/28 00:06:12;;;;;;;241.80;167.13;;;;;;;25.12;40.35;99396.47;5026981;28;20487;-44
2021/12/28 00:08:40;;;;;;;226.25;160.40;;;;;;;25.08;40.17;99400.88;5026940;28;20045;-43
2021/12/28 00:11:09;;;;;;;248.52;172.20;;;;;;;25.09;40.41;99389.50;5026753;28;20034;-43
2021/12/28 00:13:38;;;;;;;236.45;163.23;;;;;;;25.06;40.58;99386.06;5025589;28;20021;-43
2021/12/28 00:18:37;;;;;;;243.65;165.85;;;;;;;25.00;40.31;99398.38;5026826;28;20017;-43
2021/12/28 00:21:07;;;;;;;226.18;164.25;;;;;;;25.01;40.56;99399.28;5026760;28;20030;-43
2021/12/28 00:23:39;;;;;;;235.38;162.43;;;;;;;25.03;40.10;99411.47;5026798;28;20545;-44
2021/12/28 00:26:10;;;;;;;234.48;160.90;;;;;;;25.03;40.46;99423.72;5026746;28;20034;-44
2021/12/28 00:28:39;;;;;;;242.43;166.55;;;;;;;25.01;40.17;99428.13;5026922;28;20037;-44
2021/12/28 00:31:08;;;;;;;232.98;160.63;;;;;;;24.96;40.54;99424.69;5025275;28;20493;-44
2021/12/28 00:33:37;;;;;;;233.55;162.15;;;;;;;25.07;40.42;99430.63;5026046;28;20036;-44
2021/12/28 00:36:06;;;;;;;224.13;154.48;;;;;;;24.99;40.49;99433.38;5026431;28;20061;-44
2021/12/28 00:38:34;;;;;;;237.20;159.60;;;;;;;25.03;40.03;99445.56;5026016;28;20072;-43
2021/12/28 00:41:03;;;;;;;229.00;158.43;;;;;;;24.97;40.45;99442.19;5026486;28;20124;-43
2021/12/28 00:43:33;;;;;;;218.57;152.73;;;;;;;24.96;40.54;99459.69;5025098;28;20035;-43
2021/12/28 00:46:01;;;;;;;237.77;156.57;;;;;;;24.92;40.12;99444.88;5026756;28;20029;-45
2021/12/28 00:48:30;;;;;;;231.73;165.60;;;;;;;24.96;40.53;99450.94;5026522;28;20029;-43
2021/12/28 00:50:58;;;;;;;210.63;151.68;;;;;;;24.94;40.50;99460.59;5025864;28;20034;-43
2021/12/28 00:53:27;;;;;;;232.35;158.43;;;;;;;24.99;40.17;99467.50;5024862;28;20084;-43
2021/12/28 00:55:55;;;;;;;237.13;160.90;;;;;;;24.92;40.45;99470.22;5025652;28;20421;-43
2021/12/28 00:58:24;;;;;;;235.02;161.05;;;;;;;24.96;40.22;99474.53;5024059;28;20034;-43
2021/12/28 01:00:53;;;;;;;233.05;161.63;;;;;;;24.88;40.48;99478.16;5026246;28;20107;-43
2021/12/28 01:03:22;;;;;;;232.38;164.60;;;;;;;24.89;40.41;99479.00;5026290;28;20034;-44
2021/12/28 01:05:51;;;;;;;233.07;163.50;;;;;;;24.93;40.25;99480.72;5008576;28;20176;-43
2021/12/28 01:08:20;;;;;;;234.45;161.00;;;;;;;24.84;40.92;99486.06;5026218;28;20021;-43
2021/12/28 01:10:51;;;;;;;240.32;165.13;;;;;;;24.82;40.82;99486.09;5025887;28;20040;-43
2021/12/28 01:13:21;;;;;;;224.52;157.30;;;;;;;24.88;40.48;99482.53;5025230;28;20479;-44
2021/12/28 01:15:51;;;;;;;236.57;164.52;;;;;;;24.80;40.84;99500.13;5025571;28;20116;-44
2021/12/28 01:18:20;;;;;;;221.45;155.50;;;;;;;24.86;40.42;99492.16;5024454;28;20643;-44
2021/12/28 01:20:49;;;;;;;239.07;160.50;;;;;;;24.76;40.63;99475.69;5025592;28;20428;-44
2021/12/28 01:23:18;;;;;;;239.50;164.70;;;;;;;24.88;40.79;99496.53;5025622;28;20049;-43
2021/12/28 01:25:47;;;;;;;229.77;161.05;;;;;;;24.87;40.52;99507.91;5025637;28;20048;-45
2021/12/28 01:28:15;;;;;;;236.68;160.25;;;;;;;24.90;40.72;99500.88;5025589;28;20044;-43
2021/12/28 01:30:47;;;;;;;239.98;164.23;;;;;;;24.84;40.74;99507.94;5025535;28;20029;-44
2021/12/28 01:33:15;;;;;;;234.90;162.75;;;;;;;24.85;40.57;99521.91;5025314;28;20433;-44
2021/12/28 01:35:44;;;;;;;247.75;169.10;;;;;;;24.79;40.76;99527.25;5025395;28;20036;-43
2021/12/28 01:38:13;;;;;;;229.07;156.88;;;;;;;24.79;40.51;99541.22;5025582;28;20041;-44
2021/12/28 01:40:47;;;;;;;232.45;161.20;;;;;;;24.86;40.71;99555.13;5025586;28;20044;-44
2021/12/28 01:43:19;;;;;;;226.95;154.93;;;;;;;24.85;40.37;99543.78;5023831;28;20029;-43
2021/12/28 01:45:51;;;;;;;239.13;162.90;;;;;;;24.87;40.63;99556.84;5023815;28;20485;-43
2021/12/28 01:48:23;;;;;;;228.02;164.15;;;;;;;24.81;40.67;99556.97;5025459;28;20033;-43
2021/12/28 01:51:00;;;;;;;230.35;159.63;;;;;;;24.80;40.75;99557.84;5025091;28;20025;-42
2021/12/28 01:53:32;;;;;;;249.25;170.43;;;;;;;24.88;40.51;99569.97;5025266;28;20090;-43
2021/12/28 01:56:03;;;;;;;224.80;161.82;;;;;;;24.80;40.89;99569.19;5025212;28;20042;-43
2021/12/28 01:58:32;;;;;;;244.73;171.15;;;;;;;24.80;40.94;99569.19;5024792;28;20065;-43
2021/12/28 02:01:05;;;;;;;243.55;168.98;;;;;;;24.75;40.86;99586.72;5024680;28;20037;-42
2021/12/28 02:03:36;;;;;;;240.43;168.75;;;;;;;24.82;40.87;99584.91;5024971;28;20802;-43
2021/12/28 02:06:05;;;;;;;234.02;163.48;;;;;;;24.75;41.07;99597.22;5024854;28;20037;-42
2021/12/28 02:08:37;;;;;;;236.77;165.27;;;;;;;24.78;40.76;99588.47;5024467;28;20087;-44
2021/12/28 02:11:07;;;;;;;244.60;172.68;;;;;;;24.84;40.82;99596.22;5024833;28;20041;-44
2021/12/28 02:13:36;;;;;;;240.68;164.60;;;;;;;24.84;40.92;99596.22;5024688;28;20888;-43
2021/12/28 02:16:04;;;;;;;245.68;169.95;;;;;;;24.78;40.84;99607.66;5024416;28;20030;-43
2021/12/28 02:18:34;;;;;;;257.42;173.70;;;;;;;24.80;40.75;99616.41;5022878;28;20084;-43
2021/12/28 02:21:05;;;;;;;250.23;169.52;;;;;;;24.81;40.52;99609.41;5024736;28;20091;-44
2021/12/28 02:23:36;;;;;;;248.63;167.05;;;;;;;24.68;40.76;99606.88;5023214;28;20044;-43
2021/12/28 02:26:05;;;;;;;232.82;162.00;;;;;;;24.79;40.66;99619.06;5024426;28;20242;-43
2021/12/28 02:28:35;;;;;;;228.23;161.38;;;;;;;24.75;40.96;99620.81;5022768;28;20034;-43
2021/12/28 02:31:03;;;;;;;219.30;148.50;;;;;;;24.71;40.62;99625.22;5024584;28;20036;-44
2021/12/28 02:33:32;;;;;;;228.55;160.23;;;;;;;24.64;40.90;99626.19;5024571;28;20037;-44
2021/12/28 02:36:02;;;;;;;217.98;156.48;;;;;;;24.70;40.87;99631.38;5024316;28;20029;-44
2021/12/28 02:38:33;;;;;;;219.15;151.45;;;;;;;24.72;40.89;99626.13;5024282;28;20048;-44
2021/12/28 02:41:05;;;;;;;234.80;162.57;;;;;;;24.63;40.84;99631.41;5023030;28;20270;-44
2021/12/28 02:43:33;;;;;;;237.93;161.65;;;;;;;24.69;41.03;99634.84;5023950;28;20025;-43
2021/12/28 02:46:05;;;;;;;228.88;156.95;;;;;;;24.73;40.63;99631.34;5024381;28;20099;-43
2021/12/28 02:48:35;;;;;;;231.13;159.10;;;;;;;24.71;40.94;99638.34;5024206;28;20034;-44
2021/12/28 02:51:09;;;;;;;236.50;164.95;;;;;;;24.70;40.55;99639.22;5024111;28;20025;-44
2021/12/28 02:53:38;;;;;;;235.57;160.65;;;;;;;24.78;40.85;99654.03;5024217;28;20029;-43
2021/12/28 02:56:07;;;;;;;230.65;163.60;;;;;;;24.74;40.91;99658.41;5020992;28;20474;-43
2021/12/28 02:58:38;;;;;;;232.60;162.45;;;;;;;24.74;41.00;99658.41;5002629;28;20040;-43
2021/12/28 03:01:10;;;;;;;240.75;163.75;;;;;;;24.70;41.17;99670.69;5003984;28;20088;-43
2021/12/28 03:03:46;;;;;;;230.18;162.48;;;;;;;24.69;41.11;99676.78;5004534;28;20062;-43
2021/12/28 03:06:17;;;;;;;239.60;166.23;;;;;;;24.66;41.28;99687.31;5004416;28;20223;-43
2021/12/28 03:08:54;;;;;;;246.85;171.45;;;;;;;24.64;40.92;99693.47;5002760;28;20044;-43
2021/12/28 03:11:24;;;;;;;235.95;166.90;;;;;;;24.56;41.29;99685.69;5004090;28;20104;-43
2021/12/28 03:13:55;;;;;;;239.52;167.25;;;;;;;24.62;41.00;99690.88;5003951;28;20454;-43
2021/12/28 03:16:25;;;;;;;243.88;169.05;;;;;;;24.63;41.33;99687.38;5004128;28;20854;-43
2021/12/28 03:18:54;;;;;;;240.68;166.15;;;;;;;24.66;40.96;99696.94;5003858;28;20029;-43
2021/12/28 03:21:24;;;;;;;249.95;172.13;;;;;;;24.63;41.12;99696.97;5003751;28;20033;-43
2021/12/28 03:23:58;;;;;;;248.38;174.98;;;;;;;24.62;41.11;99709.22;5003907;28;20108;-43
2021/12/28 03:26:27;;;;;;;253.50;174.38;;;;;;;24.62;41.05;99716.22;5004100;28;20029;-44
2021/12/28 03:28:56;;;;;;;239.45;172.73;;;;;;;24.62;41.09;99721.44;5003955;28;20038;-43
2021/12/28 03:31:25;;;;;;;255.98;177.07;;;;;;;24.68;41.24;99719.63;5003860;28;20061;-43
2021/12/28 03:34:00;;;;;;;250.75;176.27;;;;;;;24.60;41.34;99717.97;5003855;28;20080;-43
2021/12/28 03:36:30;;;;;;;248.55;172.88;;;;;;;24.64;41.33;99724.94;5002936;28;20030;-43
2021/12/28 03:39:01;;;;;;;244.18;172.27;;;;;;;24.62;41.01;99732.81;5003905;28;20033;-43
2021/12/28 03:41:30;;;;;;;259.88;178.10;;;;;;;24.58;41.32;99731.97;5003149;28;20086;-42
2021/12/28 03:43:59;;;;;;;258.13;177.40;;;;;;;24.65;41.11;99722.31;5003191;28;20072;-43
2021/12/28 03:46:29;;;;;;;258.95;183.52;;;;;;;24.66;41.24;99721.41;5002455;28;20092;-43
2021/12/28 03:49:03;;;;;;;264.10;184.02;;;;;;;24.60;41.34;99717.97;5004118;28;20038;-43
2021/12/28 03:51:33;;;;;;;264.95;179.57;;;;;;;24.64;41.03;99732.78;5003938;28;20018;-44
2021/12/28 03:54:01;;;;;;;260.92;180.98;;;;;;;24.66;41.10;99744.16;5003584;28;20038;-43
2021/12/28 03:56:30;;;;;;;268.60;182.60;;;;;;;24.65;41.00;99738.03;5003788;28;20037;-44
2021/12/28 03:59:02;;;;;;;274.63;186.93;;;;;;;24.64;41.56;99730.19;5003409;28;20569;-43
2021/12/28 04:01:30;;;;;;;261.30;181.70;;;;;;;24.64;40.89;99738.03;5002294;28;20479;-43
2021/12/28 04:03:59;;;;;;;262.58;181.07;;;;;;;24.52;41.45;99732.03;5003854;28;20057;-43
2021/12/28 04:06:30;;;;;;;259.23;175.10;;;;;;;24.62;41.27;99738.06;5003669;28;20501;-43
2021/12/28 04:09:02;;;;;;;267.42;181.07;;;;;;;24.55;41.40;99749.47;5003761;28;20065;-42
2021/12/28 04:11:37;;;;;;;271.15;181.52;;;;;;;24.58;41.56;99754.69;5003747;28;20029;-43
2021/12/28 04:14:07;;;;;;;266.77;185.75;;;;;;;24.55;41.61;99762.59;5002137;28;20041;-44
2021/12/28 04:16:37;;;;;;;266.27;181.65;;;;;;;24.56;41.46;99753.84;5003177;28;20037;-43
2021/12/28 04:19:13;;;;;;;275.33;188.60;;;;;;;24.46;41.63;99752.19;5003513;28;20026;-43
2021/12/28 04:21:42;;;;;;;263.30;183.40;;;;;;;24.31;41.58;99732.19;5003400;28;20104;-44
2021/12/28 04:24:10;;;;;;;273.85;185.85;;;;;;;24.50;41.66;99751.25;5001798;28;20387;-43
2021/12/28 04:26:39;;;;;;;272.27;188.10;;;;;;;24.52;41.28;99759.97;5003526;28;20029;-43
2021/12/28 04:29:11;;;;;;;270.23;185.50;;;;;;;24.53;41.55;99774.84;5003546;28;20044;-43
2021/12/28 04:31:41;;;;;;;284.33;190.85;;;;;;;24.52;41.72;99797.56;5005625;28;20030;-43
2021/12/28 04:34:10;;;;;;;281.40;188.13;;;;;;;24.51;41.43;99785.34;5007185;28;20032;-43
2021/12/28 04:36:47;;;;;;;276.55;195.15;;;;;;;24.49;41.73;99796.75;5007238;28;20030;-43
2021/12/28 04:39:15;;;;;;;264.27;181.18;;;;;;;24.56;41.12;99787.94;5006860;28;20490;-44
2021/12/28 04:41:52;;;;;;;280.80;190.98;;;;;;;24.60;41.34;99797.50;5006742;28;20489;-43
2021/12/28 04:44:24;;;;;;;278.95;186.68;;;;;;;24.68;40.97;99800.06;5005582;28;20065;-43
2021/12/28 04:46:54;;;;;;;276.40;191.77;;;;;;;24.61;41.37;99807.13;5006695;28;20391;-44
2021/12/28 04:49:26;;;;;;;283.63;195.98;;;;;;;24.59;41.43;99808.88;5006790;28;20037;-43
2021/12/28 04:51:54;;;;;;;276.13;189.43;;;;;;;24.58;40.99;99802.75;5006490;28;20037;-44
2021/12/28 04:54:24;;;;;;;279.90;192.57;;;;;;;24.56;41.08;99806.28;5006383;28;20057;-44
2021/12/28 04:56:56;;;;;;;285.10;195.82;;;;;;;24.50;41.25;99815.06;5006613;28;20092;-44
2021/12/28 04:59:24;;;;;;;269.45;188.40;;;;;;;24.51;41.62;99818.53;5006285;28;20058;-44
2021/12/28 05:01:53;;;;;;;283.50;195.00;;;;;;;24.55;41.28;99820.28;5006539;28;20112;-44
2021/12/28 05:04:25;;;;;;;288.25;194.77;;;;;;;24.44;41.45;99815.09;5006319;28;20029;-43
2021/12/28 05:06:55;;;;;;;283.55;192.30;;;;;;;24.48;41.63;99815.97;5006202;28;20030;-44
2021/12/28 05:09:23;;;;;;;291.52;203.35;;;;;;;24.52;41.55;99815.94;5006442;28;20037;-43
2021/12/28 05:11:57;;;;;;;286.25;200.65;;;;;;;24.50;41.48;99806.31;5006043;28;20459;-44
2021/12/28 05:14:25;;;;;;;277.13;198.68;;;;;;;24.43;41.93;99827.34;5006364;28;20120;-45
2021/12/28 05:16:54;;;;;;;291.42;202.15;;;;;;;24.44;41.70;99830.81;5006306;28;20026;-44
2021/12/28 05:19:23;;;;;;;295.83;198.88;;;;;;;24.42;41.73;99830.84;5005451;28;20645;-43
2021/12/28 05:21:52;;;;;;;291.25;198.32;;;;;;;24.51;41.53;99844.75;5006014;28;20034;-44
2021/12/28 05:24:22;;;;;;;289.50;201.15;;;;;;;24.51;41.41;99845.66;5006081;28;20471;-44
2021/12/28 05:26:52;;;;;;;296.20;203.10;;;;;;;24.43;41.53;99845.69;5006133;28;20529;-44
2021/12/28 05:29:21;;;;;;;292.80;201.70;;;;;;;24.43;41.87;99840.47;5005530;28;20029;-43
2021/12/28 05:31:55;;;;;;;293.65;202.90;;;;;;;24.46;41.90;99844.81;5006104;28;20040;-43
2021/12/28 05:34:29;;;;;;;296.10;204.53;;;;;;;24.46;41.48;99836.09;5004686;28;20453;-43
2021/12/28 05:36:58;;;;;;;288.75;206.43;;;;;;;24.52;41.14;99838.63;5005932;28;20483;-43
2021/12/28 05:39:32;;;;;;;299.38;206.15;;;;;;;24.54;41.51;99855.22;5005683;28;20041;-43
2021/12/28 05:42:02;;;;;;;293.00;207.20;;;;;;;24.43;42.02;99852.69;5005356;28;20101;-44
2021/12/28 05:44:31;;;;;;;282.55;198.98;;;;;;;24.48;41.70;99860.53;5005174;28;20065;-44
2021/12/28 05:46:59;;;;;;;292.38;205.52;;;;;;;24.43;41.51;99852.69;5005657;28;20042;-43
2021/12/28 05:49:28;;;;;;;319.77;214.70;;;;;;;24.38;41.67;99857.09;5005622;28;20025;-43
2021/12/28 05:51:57;;;;;;;297.17;206.50;;;;;;;24.38;41.72;99865.81;5005234;28;20029;-42
2021/12/28 05:54:26;;;;;;;318.45;216.25;;;;;;;24.38;41.75;99868.44;5005307;28;20095;-43
2021/12/28 05:56:54;;;;;;;301.77;211.82;;;;;;;24.38;42.08;99878.94;5005017;28;20029;-44
2021/12/28 05:59:23;;;;;;;305.38;214.25;;;;;;;24.41;42.02;99873.66;5004623;28;20064;-44
2021/12/28 06:01:55;;;;;;;311.08;213.98;;;;;;;24.36;42.10;99891.16;5005234;28;20034;-43
2021/12/28 06:04:25;;;;;;;301.48;211.48;;;;;;;24.34;42.21;99890.31;5005296;28;20034;-43
2021/12/28 06:06:53;;;;;;;308.73;215.70;;;;;;;24.39;41.51;99898.16;5005231;28;20105;-44
2021/12/28 06:09:24;;;;;;;296.83;209.23;;;;;;;24.41;41.50;99901.63;5005121;28;20049;-43
2021/12/28 06:11:53;;;;;;;310.25;218.90;;;;;;;24.47;41.79;99898.97;5004174;28;20041;-43
2021/12/28 06:14:22;;;;;;;322.48;218.23;;;;;;;24.43;41.56;99911.25;5004600;28;20238;-45
2021/12/28 06:16:51;;;;;;;307.48;212.35;;;;;;;24.33;41.90;99909.53;5005110;28;20033;-44
2021/12/28 06:19:19;;;;;;;298.48;205.68;;;;;;;24.43;41.91;99920.84;5005134;28;20025;-44
2021/12/28 06:21:48;;;;;;;311.13;215.93;;;;;;;24.41;41.84;99930.47;5004577;28;20117;-44
2021/12/28 06:24:16;;;;;;;306.73;212.20;;;;;;;24.42;41.76;99922.59;5005054;28;20026;-44
2021/12/28 06:26:45;;;;;;;310.38;213.10;;;;;;;24.39;41.62;99917.38;5004625;28;20391;-44
2021/12/28 06:29:18;;;;;;;297.83;212.95;;;;;;;24.42;41.81;99922.59;5003374;28;20034;-44
2021/12/28 06:31:47;;;;;;;295.65;207.10;;;;;;;24.47;41.46;99925.19;5005196;28;20447;-44
2021/12/28 06:34:16;;;;;;;313.23;214.38;;;;;;;24.34;41.86;99929.63;5004701;28;20108;-44
2021/12/28 06:36:45;;;;;;;307.80;216.00;;;;;;;24.31;41.97;99940.16;5004288;28;20045;-44
2021/12/28 06:39:13;;;;;;;305.17;215.65;;;;;;;24.34;41.95;99916.50;5004571;28;20469;-44
2021/12/28 06:41:44;;;;;;;304.45;217.10;;;;;;;24.37;41.62;99932.22;5002993;28;20499;-45
2021/12/28 06:44:13;;;;;;;303.10;213.82;;;;;;;24.41;41.97;99949.69;5004548;28;20042;-45
2021/12/28 06:46:43;;;;;;;305.10;217.85;;;;;;;24.43;41.58;99920.84;5004606;28;20482;-45
2021/12/28 06:49:13;;;;;;;304.70;213.00;;;;;;;24.45;41.58;99941.81;5004315;28;20522;-46
2021/12/28 06:51:42;;;;;;;292.38;209.68;;;;;;;24.37;41.61;99952.34;5004657;28;20041;-45
2021/12/28 06:54:10;;;;;;;312.02;217.52;;;;;;;24.35;41.63;99954.94;5003775;28;20022;-45
2021/12/28 06:56:42;;;;;;;299.52;213.85;;;;;;;24.36;41.74;99956.69;5003000;28;20084;-44
2021/12/28 06:59:12;;;;;;;326.30;221.77;;;;;;;24.37;41.56;99957.59;5003663;28;20490;-46
2021/12/28 07:01:41;;;;;;;312.42;219.70;;;;;;;24.39;41.72;99956.69;5004285;28;20038;-44
2021/12/28 07:04:09;;;;;;;301.38;213.80;;;;;;;24.36;42.11;99940.13;5004265;28;20045;-45
2021/12/28 07:06:38;;;;;;;319.25;221.85;;;;;;;24.31;41.82;99948.00;5004544;28;20040;-48
2021/12/28 07:09:06;;;;;;;300.65;211.98;;;;;;;24.41;41.54;99967.16;5004423;28;20482;-44
2021/12/28 07:11:34;;;;;;;299.63;207.80;;;;;;;24.44;41.37;99969.75;5004049;28;20057;-45
2021/12/28 07:14:03;;;;;;;309.55;213.88;;;;;;;24.37;41.59;99970.69;5019501;28;20076;-45
2021/12/28 07:16:31;;;;;;;295.80;208.63;;;;;;;24.40;41.28;99983.78;5023932;28;20028;-45
2021/12/28 07:19:00;;;;;;;281.30;205.02;;;;;;;24.27;42.03;99980.34;5023696;28;20033;-44
2021/12/28 07:21:27;;;;;;;300.55;210.50;;;;;;;24.27;42.00;99994.31;5022197;28;20033;-45
2021/12/28 07:23:56;;;;;;;296.65;209.25;;;;;;;24.27;41.91;99999.53;5023681;28;20029;-47
2021/12/28 07:26:25;;;;;;;292.05;201.77;;;;;;;24.38;41.89;99999.50;5022480;28;20040;-46
2021/12/28 07:28:54;;;;;;;295.13;205.63;;;;;;;24.36;41.66;100011.75;5022376;28;20037;-44
2021/12/28 07:31:22;;;;;;;284.70;207.52;;;;;;;24.38;41.71;100027.47;5023754;28;20029;-44
2021/12/28 07:33:50;;;;;;;283.42;204.30;;;;;;;24.43;41.37;100017.84;5023635;28;20068;-44
2021/12/28 07:36:19;;;;;;;291.65;205.30;;;;;;;24.37;41.82;100005.63;5023529;28;20026;-43
2021/12/28 07:38:48;;;;;;;292.95;206.18;;;;;;;24.41;41.70;100028.34;5011223;28;20034;-43
2021/12/28 07:41:16;;;;;;;299.50;203.43;;;;;;;24.42;41.71;100027.47;5003901;28;20030;-44
2021/12/28 07:43:44;;;;;;;292.90;201.70;;;;;;;24.42;41.51;100008.22;5003925;28;20084;-43
2021/12/28 07:46:16;;;;;;;272.55;195.63;;;;;;;24.40;41.60;100016.09;5003672;28;20125;-44
2021/12/28 07:48:43;;;;;;;283.65;192.48;;;;;;;24.39;41.68;100024.84;5003696;28;20076;-43
2021/12/28 07:51:11;;;;;;;285.52;195.95;;;;;;;24.39;41.83;100006.50;5003884;28;20033;-43
2021/12/28 07:53:40;;;;;;;282.00;192.48;;;;;;;24.47;41.42;100010.84;5002104;28;20109;-43
2021/12/28 07:56:08;;;;;;;266.35;188.07;;;;;;;24.43;41.59;100016.09;5003586;28;20030;-44
2021/12/28 07:58:37;;;;;;;265.95;184.90;;;;;;;24.39;41.39;100014.34;5003438;28;20034;-44
2021/12/28 08:01:05;;;;;;;273.15;186.43;;;;;;;24.32;41.44;100019.63;5003620;28;20049;-44
2021/12/28 08:03:34;;;;;;;265.55;182.98;;;;;;;24.37;41.68;100042.31;5003867;28;20585;-45
2021/12/28 08:06:02;;;;;;;270.98;183.55;;;;;;;24.36;41.37;100055.44;5004928;28;20241;-44
2021/12/28 08:08:31;;;;;;;260.75;179.05;;;;;;;24.35;41.60;100036.22;5007237;28;20026;-43
2021/12/28 08:11:00;;;;;;;271.63;188.07;;;;;;;24.36;41.67;100055.44;5007208;28;20815;-43
2021/12/28 08:13:29;;;;;;;258.58;181.05;;;;;;;24.46;41.12;100065.00;5006018;28;20335;-46
2021/12/28 08:15:58;;;;;;;270.58;186.05;;;;;;;24.34;41.84;100078.16;5007338;28;20022;-44
2021/12/28 08:18:26;;;;;;;280.52;188.38;;;;;;;24.43;41.50;100080.75;5007157;28;20049;-44
2021/12/28 08:20:55;;;;;;;260.70;180.15;;;;;;;24.47;41.33;100068.53;5005910;28;20038;-42
2021/12/28 08:23:23;;;;;;;251.57;178.70;;;;;;;24.39;41.23;100061.53;5007239;28;20033;-44
2021/12/28 08:25:51;;;;;;;255.65;177.38;;;;;;;24.42;41.24;100069.41;5007010;28;20458;-44
2021/12/28 08:28:20;;;;;;;261.17;179.15;;;;;;;24.39;41.36;100087.75;5005217;28;20033;-43
2021/12/28 08:30:48;;;;;;;267.65;181.55;;;;;;;24.35;41.44;100095.63;5007581;28;20034;-43
2021/12/28 08:33:17;;;;;;;274.63;187.95;;;;;;;24.39;41.50;100100.00;5007142;28;20045;-43
2021/12/28 08:35:46;;;;;;;265.25;185.85;;;;;;;24.37;41.37;100101.75;5006684;28;20501;-44
2021/12/28 08:38:15;;;;;;;280.20;190.73;;;;;;;24.40;41.78;100092.13;5015018;28;20115;-44
2021/12/28 08:40:45;;;;;;;263.05;178.05;;;;;;;24.37;41.41;100089.50;5024346;28;20037;-44
2021/12/28 08:43:14;;;;;;;272.10;189.63;;;;;;;24.38;41.78;100106.13;5026456;28;20041;-44
2021/12/28 08:45:42;;;;;;;263.83;185.00;;;;;;;24.31;41.64;100092.16;5026322;28;20038;-44
2021/12/28 08:48:11;;;;;;;260.15;178.18;;;;;;;24.37;41.59;100091.28;5026144;28;20028;-45
2021/12/28 08:50:40;;;;;;;271.13;183.40;;;;;;;24.39;41.71;100106.09;5026057;28;20033;-44
2021/12/28 08:53:10;;;;;;;275.75;187.07;;;;;;;24.45;41.35;100101.72;5026205;28;20029;-45
2021/12/28 08:55:39;;;;;;;262.02;178.40;;;;;;;24.43;41.50;100096.47;5026407;28;20030;-44
2021/12/28 08:58:07;;;;;;;269.55;182.38;;;;;;;24.47;41.42;100113.09;5025632;28;20831;-43
2021/12/28 09:00:37;;;;;;;257.17;176.43;;;;;;;24.44;41.61;100111.34;5025978;28;20096;-44
2021/12/28 09:03:07;;;;;;;265.73;179.13;;;;;;;24.49;41.46;100109.59;5026423;28;20037;-44
2021/12/28 09:05:37;;;;;;;263.33;178.30;;;;;;;24.42;41.38;100123.56;5013226;28;20122;-44
2021/12/28 09:08:08;;;;;;;259.58;176.73;;;;;;;24.38;41.50;100117.47;5006338;28;20423;-47
2021/12/28 09:10:36;;;;;;;258.10;177.70;;;;;;;24.41;41.36;100127.06;5006057;28;20041;-44
2021/12/28 09:13:04;;;;;;;275.58;187.55;;;;;;;24.30;41.83;100132.34;5006311;28;20506;-45
2021/12/28 09:15:34;;;;;;;265.67;177.30;;;;;;;24.48;41.57;100144.53;5004725;28;20038;-43
2021/12/28 09:18:01;;;;;;;258.83;172.68;;;;;;;24.55;41.11;100158.50;5005141;28;20486;-44
2021/12/28 09:20:30;;;;;;;269.50;182.80;;;;;;;24.55;41.37;100159.41;5006208;28;20486;-43
2021/12/28 09:22:58;;;;;;;279.02;186.40;;;;;;;24.54;41.40;100168.13;5005659;28;20482;-43
2021/12/28 09:25:27;;;;;;;293.30;196.27;;;;;;;24.49;41.65;100183.00;5005901;28;20034;-44
2021/12/28 09:27:56;;;;;;;265.67;179.57;;;;;;;24.50;41.57;100184.75;5006267;28;20084;-43
2021/12/28 09:30:24;;;;;;;262.55;182.30;;;;;;;24.53;41.29;100175.97;5005983;28;20161;-44
2021/12/28 09:32:53;;;;;;;263.38;183.60;;;;;;;24.56;41.42;100181.22;5003958;28;20120;-43
2021/12/28 09:35:22;;;;;;;271.65;186.93;;;;;;;24.55;41.20;100182.09;5005417;28;20034;-43
2021/12/28 09:37:50;;;;;;;265.83;179.60;;;;;;;24.56;41.18;100186.47;5005495;28;20029;-44
2021/12/28 09:40:19;;;;;;;274.95;185.73;;;;;;;24.50;41.51;100187.38;5005593;28;20034;-44
2021/12/28 09:42:47;;;;;;;270.05;186.27;;;;;;;24.57;41.17;100189.06;5006003;28;20034;-43
2021/12/28 09:45:16;;;;;;;282.10;189.25;;;;;;;24.47;41.76;100192.59;5005747;28;20037;-43
2021/12/28 09:47:44;;;;;;;284.35;186.48;;;;;;;24.56;41.56;100207.44;5005647;28;20026;-43
2021/12/28 09:50:15;;;;;;;271.65;183.48;;;;;;;24.49;41.58;100201.34;5005537;28;20029;-44
2021/12/28 09:52:49;;;;;;;274.33;181.48;;;;;;;24.55;41.40;100203.09;5005248;28;20030;-43
2021/12/28 09:55:21;;;;;;;271.73;187.55;;;;;;;24.51;41.77;100203.94;5005714;28;20403;-45
2021/12/28 09:57:50;;;;;;;262.98;181.18;;;;;;;24.58;41.63;100203.09;5005347;28;20045;-44
2021/12/28 10:00:20;;;;;;;274.63;191.20;;;;;;;24.58;41.48;100213.56;5005163;28;20104;-47
2021/12/28 10:02:48;;;;;;;276.73;198.20;;;;;;;24.63;41.54;100208.31;5005590;28;20033;-46
2021/12/28 10:05:20;;;;;;;288.92;195.30;;;;;;;24.66;41.40;100208.31;5005423;28;20036;-44
2021/12/28 10:07:56;;;;;;;280.65;193.98;;;;;;;24.68;41.29;100217.06;5005194;28;20054;-47
2021/12/28 10:10:37;;;;;;;279.45;189.50;;;;;;;24.64;41.64;100213.56;5005136;28;20037;-44
2021/12/28 10:13:11;;;;;;;287.15;196.43;;;;;;;24.64;41.98;100212.69;5005155;28;20042;-44
2021/12/28 10:15:43;;;;;;;284.00;194.77;;;;;;;24.69;41.54;100221.44;5005086;28;20183;-43
2021/12/28 10:18:12;;;;;;;272.08;182.70;;;;;;;24.68;41.75;100227.53;5005062;28;20504;-44
2021/12/28 10:20:47;;;;;;;272.38;190.55;;;;;;;24.71;41.72;100220.56;5003334;28;20450;-46
2021/12/28 10:23:18;;;;;;;277.05;189.52;;;;;;;24.66;41.48;100237.16;5005004;28;20057;-43
2021/12/28 10:25:49;;;;;;;262.63;181.63;;;;;;;24.61;41.62;100231.03;5004951;28;20028;-44
2021/12/28 10:28:20;;;;;;;278.08;186.55;;;;;;;24.61;41.96;100229.31;5004190;28;20029;-46
2021/12/28 10:30:52;;;;;;;263.50;181.38;;;;;;;24.64;41.51;100225.78;5004819;28;20190;-46
2021/12/28 10:33:23;;;;;;;277.17;190.27;;;;;;;24.66;41.78;100226.66;5004777;28;20033;-43
2021/12/28 10:35:52;;;;;;;267.17;183.32;;;;;;;24.73;41.49;100226.69;5004726;28;20121;-44
2021/12/28 10:38:24;;;;;;;280.38;186.35;;;;;;;24.73;41.68;100229.31;5004534;28;20073;-44
2021/12/28 10:40:55;;;;;;;275.52;181.23;;;;;;;24.75;41.65;100228.44;5004036;28;20083;-44
2021/12/28 10:43:27;;;;;;;260.55;178.02;;;;;;;24.69;41.39;100227.53;5004763;28;20505;-44
2021/12/28 10:46:01;;;;;;;262.95;183.13;;;;;;;24.70;41.38;100233.69;5004645;28;20029;-44
2021/12/28 10:48:42;;;;;;;264.63;177.60;;;;;;;24.76;41.52;100252.03;5022366;28;20091;-45
2021/12/28 10:51:14;;;;;;;262.73;180.93;;;;;;;24.78;41.11;100254.66;5016245;28;20024;-44
2021/12/28 10:54:12;;;;;;;265.30;183.52;;;;;;;24.77;41.40;100253.78;5004114;28;20125;-45
2021/12/28 10:56:41;;;;;;;258.80;179.18;;;;;;;24.76;41.11;100257.28;5004339;28;20021;-44
2021/12/28 10:59:10;;;;;;;267.63;180.75;;;;;;;24.72;41.31;100261.66;5011735;28;20581;-45
2021/12/28 11:01:40;;;;;;;263.80;178.88;;;;;;;24.68;41.56;100265.13;5010810;28;20030;-44
2021/12/28 11:04:11;;;;;;;267.00;183.23;;;;;;;24.69;41.56;100264.25;5004109;28;20034;-44
2021/12/28 11:06:44;;;;;;;281.20;192.30;;;;;;;24.69;41.29;100261.63;5004486;28;20044;-43
2021/12/28 11:09:17;;;;;;;269.98;186.85;;;;;;;24.67;41.54;100273.00;5003755;28;20103;-45
2021/12/28 11:11:46;;;;;;;263.83;183.63;;;;;;;24.75;41.17;100276.50;5010266;28;20103;-44
2021/12/28 11:14:18;;;;;;;279.00;182.43;;;;;;;24.68;41.22;100273.00;5023716;28;20030;-45